Santa Rosa, New Mexico
Current Conditions -  °F | °C
As of 10:53 AM on Saturday 22 Nov 2014 (Local Time) from KLVS Reporting Station
Clear Clear  
Wind Chill: 52°   Ceiling: Unl
Heat Index: 52°   Visibility: 10mi
Dew Point: 21°   Wind: 6mph
Humidity: 30%   Direction: 350°N
Pressure: 29.96"   Gusts: NA
Location:  34.94°N, 104.68°W
Report Text: KLVS 221753Z AUTO 35005KT 10SM CLR 11/M06 A2996 RMK AO2 SLP104 T01111061 10117 21033 58017
Loading
Personal Weather Stations






























Interactive Weather Map New forecast layout! Learn more

10-Day Weather Forecast

Advertisements
Track Severe Weather on mobile